sensor_id;sensor_type;location;lat;lon;timestamp;temperature;humidity
7248;DHT22;3665;51.034;13.642;2023-09-07T04:15:23;13.20;1.00
7248;DHT22;3665;51.034;13.642;2023-09-07T04:21:39;13.10;1.00
7248;DHT22;3665;51.034;13.642;2023-09-07T05:19:40;14.40;1.00
7248;DHT22;3665;51.034;13.642;2023-09-07T05:30:15;14.80;1.00
7248;DHT22;3665;51.034;13.642;2023-09-07T05:35:05;14.90;1.00
7248;DHT22;3665;51.034;13.642;2023-09-07T05:45:22;15.30;1.00
7248;DHT22;3665;51.034;13.642;2023-09-07T05:50:10;15.60;1.00
7248;DHT22;3665;51.034;13.642;2023-09-07T05:54:59;15.80;1.00
7248;DHT22;3665;51.034;13.642;2023-09-07T05:59:47;16.10;1.00
7248;DHT22;3665;51.034;13.642;2023-09-07T06:04:35;16.40;1.00
7248;DHT22;3665;51.034;13.642;2023-09-07T06:09:26;16.60;1.00
7248;DHT22;3665;51.034;13.642;2023-09-07T06:14:29;17.00;1.00
7248;DHT22;3665;51.034;13.642;2023-09-07T06:19:17;17.30;1.00
7248;DHT22;3665;51.034;13.642;2023-09-07T06:24:08;17.60;1.00
7248;DHT22;3665;51.034;13.642;2023-09-07T06:28:54;18.00;1.00
7248;DHT22;3665;51.034;13.642;2023-09-07T06:33:40;18.30;1.00
7248;DHT22;3665;51.034;13.642;2023-09-07T06:38:29;18.70;1.00
7248;DHT22;3665;51.034;13.642;2023-09-07T06:43:15;19.10;1.00
7248;DHT22;3665;51.034;13.642;2023-09-07T06:48:04;19.30;1.00
7248;DHT22;3665;51.034;13.642;2023-09-07T06:52:51;19.60;1.00
7248;DHT22;3665;51.034;13.642;2023-09-07T06:57:39;19.90;1.00
7248;DHT22;3665;51.034;13.642;2023-09-07T07:02:32;20.20;1.00
7248;DHT22;3665;51.034;13.642;2023-09-07T07:07:18;20.40;1.00
7248;DHT22;3665;51.034;13.642;2023-09-07T07:12:02;20.60;1.00
7248;DHT22;3665;51.034;13.642;2023-09-07T07:16:51;20.80;1.00
7248;DHT22;3665;51.034;13.642;2023-09-07T07:21:38;21.00;1.00
7248;DHT22;3665;51.034;13.642;2023-09-07T07:26:35;21.30;1.00
7248;DHT22;3665;51.034;13.642;2023-09-07T07:31:31;21.70;1.00
7248;DHT22;3665;51.034;13.642;2023-09-07T07:36:20;22.00;1.00
7248;DHT22;3665;51.034;13.642;2023-09-07T07:41:06;22.20;1.00
7248;DHT22;3665;51.034;13.642;2023-09-07T07:46:13;22.50;1.00
7248;DHT22;3665;51.034;13.642;2023-09-07T07:51:03;22.80;1.00
7248;DHT22;3665;51.034;13.642;2023-09-07T07:56:03;23.10;1.00
7248;DHT22;3665;51.034;13.642;2023-09-07T08:00:56;23.40;1.00
7248;DHT22;3665;51.034;13.642;2023-09-07T08:05:57;23.70;1.00
7248;DHT22;3665;51.034;13.642;2023-09-07T08:10:44;24.00;1.00
7248;DHT22;3665;51.034;13.642;2023-09-07T08:15:32;24.20;1.00
7248;DHT22;3665;51.034;13.642;2023-09-07T08:20:19;24.40;1.00
7248;DHT22;3665;51.034;13.642;2023-09-07T08:25:10;24.60;1.00
7248;DHT22;3665;51.034;13.642;2023-09-07T08:29:54;24.90;1.00
7248;DHT22;3665;51.034;13.642;2023-09-07T08:34:44;24.90;1.00
7248;DHT22;3665;51.034;13.642;2023-09-07T08:39:33;25.00;1.00
7248;DHT22;3665;51.034;13.642;2023-09-07T08:44:20;25.20;1.00
7248;DHT22;3665;51.034;13.642;2023-09-07T08:49:07;25.60;1.00
7248;DHT22;3665;51.034;13.642;2023-09-07T08:54:00;25.70;1.00
7248;DHT22;3665;51.034;13.642;2023-09-07T08:59:03;26.10;1.00
7248;DHT22;3665;51.034;13.642;2023-09-07T09:03:50;26.30;1.00
7248;DHT22;3665;51.034;13.642;2023-09-07T09:08:56;26.40;1.00
7248;DHT22;3665;51.034;13.642;2023-09-07T09:13:40;26.90;1.00
7248;DHT22;3665;51.034;13.642;2023-09-07T09:18:26;27.00;1.00
7248;DHT22;3665;51.034;13.642;2023-09-07T09:23:15;27.20;1.00
7248;DHT22;3665;51.034;13.642;2023-09-07T09:28:05;27.50;1.00
7248;DHT22;3665;51.034;13.642;2023-09-07T09:32:51;27.60;1.00
7248;DHT22;3665;51.034;13.642;2023-09-07T09:37:44;27.70;1.00
7248;DHT22;3665;51.034;13.642;2023-09-07T09:42:30;27.80;1.00
7248;DHT22;3665;51.034;13.642;2023-09-07T09:47:15;28.20;1.00
7248;DHT22;3665;51.034;13.642;2023-09-07T09:52:06;27.90;1.00
7248;DHT22;3665;51.034;13.642;2023-09-07T09:56:51;28.30;1.00
7248;DHT22;3665;51.034;13.642;2023-09-07T10:01:41;28.40;1.00
7248;DHT22;3665;51.034;13.642;2023-09-07T10:06:29;28.60;1.00
7248;DHT22;3665;51.034;13.642;2023-09-07T10:11:15;28.50;1.00
7248;DHT22;3665;51.034;13.642;2023-09-07T10:16:19;28.50;1.00
7248;DHT22;3665;51.034;13.642;2023-09-07T10:21:09;28.70;1.00
7248;DHT22;3665;51.034;13.642;2023-09-07T10:26:03;28.80;1.00
7248;DHT22;3665;51.034;13.642;2023-09-07T10:31:13;28.50;1.00
7248;DHT22;3665;51.034;13.642;2023-09-07T10:36:06;28.80;1.00
7248;DHT22;3665;51.034;13.642;2023-09-07T10:40:55;28.80;1.00
7248;DHT22;3665;51.034;13.642;2023-09-07T10:45:44;29.30;1.00
7248;DHT22;3665;51.034;13.642;2023-09-07T10:50:46;29.40;1.00
7248;DHT22;3665;51.034;13.642;2023-09-07T10:55:50;29.10;1.00
7248;DHT22;3665;51.034;13.642;2023-09-07T11:00:37;29.20;1.00
7248;DHT22;3665;51.034;13.642;2023-09-07T11:05:24;29.30;1.00
7248;DHT22;3665;51.034;13.642;2023-09-07T11:10:11;29.00;1.00
7248;DHT22;3665;51.034;13.642;2023-09-07T11:15:00;29.30;1.00
7248;DHT22;3665;51.034;13.642;2023-09-07T11:19:51;29.60;1.00
7248;DHT22;3665;51.034;13.642;2023-09-07T11:24:39;29.60;1.00
7248;DHT22;3665;51.034;13.642;2023-09-07T11:30:15;29.50;1.00
7248;DHT22;3665;51.034;13.642;2023-09-07T11:34:59;29.30;1.00
7248;DHT22;3665;51.034;13.642;2023-09-07T11:39:46;29.40;1.00
7248;DHT22;3665;51.034;13.642;2023-09-07T11:44:35;29.40;1.00
7248;DHT22;3665;51.034;13.642;2023-09-07T11:49:26;29.50;1.00
7248;DHT22;3665;51.034;13.642;2023-09-07T11:54:11;29.50;1.00
7248;DHT22;3665;51.034;13.642;2023-09-07T11:59:02;29.40;1.00
7248;DHT22;3665;51.034;13.642;2023-09-07T12:03:48;29.60;1.00
7248;DHT22;3665;51.034;13.642;2023-09-07T12:14:10;29.70;1.00
7248;DHT22;3665;51.034;13.642;2023-09-07T12:19:03;29.50;1.00
7248;DHT22;3665;51.034;13.642;2023-09-07T12:23:46;29.20;1.00
7248;DHT22;3665;51.034;13.642;2023-09-07T12:28:35;29.10;1.00
7248;DHT22;3665;51.034;13.642;2023-09-07T12:33:25;29.10;1.00
7248;DHT22;3665;51.034;13.642;2023-09-07T12:38:13;29.00;1.00
7248;DHT22;3665;51.034;13.642;2023-09-07T12:43:18;29.20;1.00
7248;DHT22;3665;51.034;13.642;2023-09-07T12:48:03;29.10;1.00
7248;DHT22;3665;51.034;13.642;2023-09-07T12:53:06;29.30;1.00
7248;DHT22;3665;51.034;13.642;2023-09-07T12:58:13;29.20;1.00
7248;DHT22;3665;51.034;13.642;2023-09-07T13:03:01;29.20;1.00
7248;DHT22;3665;51.034;13.642;2023-09-07T13:07:49;29.30;1.00
7248;DHT22;3665;51.034;13.642;2023-09-07T13:12:34;29.20;1.00
7248;DHT22;3665;51.034;13.642;2023-09-07T13:17:22;29.20;1.00
7248;DHT22;3665;51.034;13.642;2023-09-07T13:22:08;29.10;1.00
7248;DHT22;3665;51.034;13.642;2023-09-07T13:27:02;28.90;1.00
7248;DHT22;3665;51.034;13.642;2023-09-07T13:31:47;29.00;1.00
7248;DHT22;3665;51.034;13.642;2023-09-07T13:36:37;29.10;1.00
7248;DHT22;3665;51.034;13.642;2023-09-07T13:41:24;29.10;1.00
7248;DHT22;3665;51.034;13.642;2023-09-07T13:46:12;29.00;1.00
7248;DHT22;3665;51.034;13.642;2023-09-07T13:51:02;29.00;1.00
7248;DHT22;3665;51.034;13.642;2023-09-07T13:55:46;29.10;1.00
7248;DHT22;3665;51.034;13.642;2023-09-07T14:00:35;29.20;1.00
7248;DHT22;3665;51.034;13.642;2023-09-07T14:05:24;29.20;1.00
7248;DHT22;3665;51.034;13.642;2023-09-07T14:10:14;29.30;1.00
7248;DHT22;3665;51.034;13.642;2023-09-07T14:15:00;29.20;1.00
7248;DHT22;3665;51.034;13.642;2023-09-07T14:20:04;29.20;1.00
7248;DHT22;3665;51.034;13.642;2023-09-07T14:24:53;29.10;1.00
7248;DHT22;3665;51.034;13.642;2023-09-07T14:29:39;29.00;1.00
7248;DHT22;3665;51.034;13.642;2023-09-07T14:34:26;28.80;1.00
7248;DHT22;3665;51.034;13.642;2023-09-07T14:39:16;28.70;1.00
7248;DHT22;3665;51.034;13.642;2023-09-07T14:44:06;28.90;1.00
7248;DHT22;3665;51.034;13.642;2023-09-07T14:48:52;28.80;1.00
7248;DHT22;3665;51.034;13.642;2023-09-07T14:53:38;28.70;1.00
7248;DHT22;3665;51.034;13.642;2023-09-07T14:58:26;28.70;1.00
7248;DHT22;3665;51.034;13.642;2023-09-07T15:03:19;28.60;1.00
7248;DHT22;3665;51.034;13.642;2023-09-07T15:08:03;28.50;1.00
7248;DHT22;3665;51.034;13.642;2023-09-07T15:12:51;28.50;1.00
7248;DHT22;3665;51.034;13.642;2023-09-07T15:17:39;28.40;1.00
7248;DHT22;3665;51.034;13.642;2023-09-07T15:22:27;28.30;1.00
7248;DHT22;3665;51.034;13.642;2023-09-07T15:27:16;28.20;1.00
7248;DHT22;3665;51.034;13.642;2023-09-07T15:32:02;28.20;1.00
7248;DHT22;3665;51.034;13.642;2023-09-07T15:37:08;28.00;1.00
7248;DHT22;3665;51.034;13.642;2023-09-07T15:41:56;27.90;1.00
7248;DHT22;3665;51.034;13.642;2023-09-07T15:46:46;27.80;1.00
7248;DHT22;3665;51.034;13.642;2023-09-07T15:51:32;27.70;1.00
7248;DHT22;3665;51.034;13.642;2023-09-07T15:56:19;27.50;1.00
7248;DHT22;3665;51.034;13.642;2023-09-07T16:01:25;27.30;1.00
7248;DHT22;3665;51.034;13.642;2023-09-07T16:06:27;27.10;1.00
7248;DHT22;3665;51.034;13.642;2023-09-07T16:11:14;26.90;1.00
7248;DHT22;3665;51.034;13.642;2023-09-07T16:16:03;26.60;1.00
7248;DHT22;3665;51.034;13.642;2023-09-07T16:20:51;26.40;1.00
7248;DHT22;3665;51.034;13.642;2023-09-07T16:25:38;26.30;1.00
7248;DHT22;3665;51.034;13.642;2023-09-07T16:30:28;26.00;1.00
7248;DHT22;3665;51.034;13.642;2023-09-07T16:35:12;25.80;1.00
7248;DHT22;3665;51.034;13.642;2023-09-07T16:40:21;25.60;1.00
7248;DHT22;3665;51.034;13.642;2023-09-07T16:45:08;25.40;1.00
7248;DHT22;3665;51.034;13.642;2023-09-07T16:49:58;25.00;1.00
7248;DHT22;3665;51.034;13.642;2023-09-07T16:54:45;24.70;1.00
7248;DHT22;3665;51.034;13.642;2023-09-07T16:59:47;24.60;1.00
7248;DHT22;3665;51.034;13.642;2023-09-07T17:04:54;24.20;1.00
7248;DHT22;3665;51.034;13.642;2023-09-07T17:09:39;23.90;1.00
7248;DHT22;3665;51.034;13.642;2023-09-07T17:14:29;23.60;1.00
7248;DHT22;3665;51.034;13.642;2023-09-07T17:19:16;23.40;1.00
7248;DHT22;3665;51.034;13.642;2023-09-07T17:24:03;23.00;1.00
7248;DHT22;3665;51.034;13.642;2023-09-07T17:29:12;22.70;1.00
7248;DHT22;3665;51.034;13.642;2023-09-07T17:33:56;22.50;1.00
7248;DHT22;3665;51.034;13.642;2023-09-07T17:38:44;22.40;1.00
7248;DHT22;3665;51.034;13.642;2023-09-07T17:43:31;22.40;1.00
7248;DHT22;3665;51.034;13.642;2023-09-07T17:48:21;22.30;1.00
7248;DHT22;3665;51.034;13.642;2023-09-07T17:53:06;22.30;1.00
7248;DHT22;3665;51.034;13.642;2023-09-07T17:58:03;22.30;1.00
7248;DHT22;3665;51.034;13.642;2023-09-07T18:03:00;22.20;1.00
7248;DHT22;3665;51.034;13.642;2023-09-07T18:07:46;22.10;1.00
7248;DHT22;3665;51.034;13.642;2023-09-07T18:12:36;21.80;1.00
7248;DHT22;3665;51.034;13.642;2023-09-07T18:17:24;21.60;1.00
7248;DHT22;3665;51.034;13.642;2023-09-07T18:22:12;21.60;1.00
7248;DHT22;3665;51.034;13.642;2023-09-07T18:27:00;21.50;1.00
7248;DHT22;3665;51.034;13.642;2023-09-07T18:31:47;21.30;1.00
7248;DHT22;3665;51.034;13.642;2023-09-07T18:36:36;21.40;1.00
7248;DHT22;3665;51.034;13.642;2023-09-07T18:41:24;21.30;1.00
7248;DHT22;3665;51.034;13.642;2023-09-07T18:46:11;21.20;1.00
7248;DHT22;3665;51.034;13.642;2023-09-07T18:51:00;21.00;1.00
7248;DHT22;3665;51.034;13.642;2023-09-07T18:56:12;20.90;1.00
7248;DHT22;3665;51.034;13.642;2023-09-07T19:01:10;20.90;1.00
7248;DHT22;3665;51.034;13.642;2023-09-07T19:05:56;20.90;1.00
7248;DHT22;3665;51.034;13.642;2023-09-07T19:10:43;20.80;1.00
7248;DHT22;3665;51.034;13.642;2023-09-07T19:15:32;20.80;1.00
7248;DHT22;3665;51.034;13.642;2023-09-07T19:20:18;20.60;1.00
7248;DHT22;3665;51.034;13.642;2023-09-07T19:25:11;20.30;1.00
7248;DHT22;3665;51.034;13.642;2023-09-07T19:29:55;20.00;1.00
7248;DHT22;3665;51.034;13.642;2023-09-07T19:34:44;19.80;1.00
7248;DHT22;3665;51.034;13.642;2023-09-07T19:39:30;19.80;1.00
7248;DHT22;3665;51.034;13.642;2023-09-07T19:44:22;19.70;1.00
7248;DHT22;3665;51.034;13.642;2023-09-07T19:49:06;19.70;1.00
7248;DHT22;3665;51.034;13.642;2023-09-07T19:53:59;19.60;1.00
7248;DHT22;3665;51.034;13.642;2023-09-07T19:58:42;19.40;1.00
7248;DHT22;3665;51.034;13.642;2023-09-07T20:03:33;19.20;1.00
7248;DHT22;3665;51.034;13.642;2023-09-07T20:08:19;18.90;1.00
7248;DHT22;3665;51.034;13.642;2023-09-07T20:13:30;18.80;1.00
7248;DHT22;3665;51.034;13.642;2023-09-07T20:18:30;18.70;1.00
7248;DHT22;3665;51.034;13.642;2023-09-07T20:23:14;18.50;1.00
7248;DHT22;3665;51.034;13.642;2023-09-07T20:28:04;18.50;1.00
7248;DHT22;3665;51.034;13.642;2023-09-07T20:32:52;18.40;1.00
7248;DHT22;3665;51.034;13.642;2023-09-07T20:37:42;18.50;1.00
7248;DHT22;3665;51.034;13.642;2023-09-07T20:42:27;18.40;1.00
7248;DHT22;3665;51.034;13.642;2023-09-07T20:47:20;18.40;1.00
7248;DHT22;3665;51.034;13.642;2023-09-07T20:52:10;18.30;1.00
7248;DHT22;3665;51.034;13.642;2023-09-07T20:57:04;18.30;1.00
7248;DHT22;3665;51.034;13.642;2023-09-07T21:01:56;18.10;1.00
7248;DHT22;3665;51.034;13.642;2023-09-07T21:06:46;18.00;1.00
7248;DHT22;3665;51.034;13.642;2023-09-07T21:11:31;17.80;1.00
7248;DHT22;3665;51.034;13.642;2023-09-07T21:16:15;17.80;1.00
7248;DHT22;3665;51.034;13.642;2023-09-07T21:21:06;17.80;1.00
7248;DHT22;3665;51.034;13.642;2023-09-07T21:25:55;17.80;1.00
7248;DHT22;3665;51.034;13.642;2023-09-07T21:30:44;17.60;1.00
7248;DHT22;3665;51.034;13.642;2023-09-07T21:35:30;17.50;1.00
7248;DHT22;3665;51.034;13.642;2023-09-07T21:40:23;17.30;1.00
7248;DHT22;3665;51.034;13.642;2023-09-07T21:45:08;17.00;1.00
7248;DHT22;3665;51.034;13.642;2023-09-07T21:49:56;16.70;1.00
7248;DHT22;3665;51.034;13.642;2023-09-07T21:54:46;16.50;1.00
7248;DHT22;3665;51.034;13.642;2023-09-07T21:59:32;16.30;1.00
7248;DHT22;3665;51.034;13.642;2023-09-07T22:04:22;16.20;1.00
7248;DHT22;3665;51.034;13.642;2023-09-07T22:09:11;15.90;1.00
7248;DHT22;3665;51.034;13.642;2023-09-07T22:14:01;15.70;1.00
7248;DHT22;3665;51.034;13.642;2023-09-07T22:18:47;15.50;1.00
7248;DHT22;3665;51.034;13.642;2023-09-07T22:23:33;15.40;1.00
7248;DHT22;3665;51.034;13.642;2023-09-07T22:28:26;15.20;1.00
7248;DHT22;3665;51.034;13.642;2023-09-07T22:33:10;15.10;1.00
7248;DHT22;3665;51.034;13.642;2023-09-07T22:37:56;14.90;1.00
7248;DHT22;3665;51.034;13.642;2023-09-07T22:42:40;14.80;1.00
7248;DHT22;3665;51.034;13.642;2023-09-07T22:47:51;14.70;1.00
7248;DHT22;3665;51.034;13.642;2023-09-07T22:52:40;14.60;1.00
7248;DHT22;3665;51.034;13.642;2023-09-07T22:57:29;14.60;1.00
7248;DHT22;3665;51.034;13.642;2023-09-07T23:02:15;14.50;1.00
7248;DHT22;3665;51.034;13.642;2023-09-07T23:07:12;14.50;1.00
7248;DHT22;3665;51.034;13.642;2023-09-07T23:12:00;14.50;1.00
7248;DHT22;3665;51.034;13.642;2023-09-07T23:16:55;14.40;1.00
7248;DHT22;3665;51.034;13.642;2023-09-07T23:21:42;14.40;1.00
7248;DHT22;3665;51.034;13.642;2023-09-07T23:26:40;14.30;1.00
7248;DHT22;3665;51.034;13.642;2023-09-07T23:31:35;14.30;1.00
7248;DHT22;3665;51.034;13.642;2023-09-07T23:36:20;14.40;1.00
7248;DHT22;3665;51.034;13.642;2023-09-07T23:41:12;14.50;1.00
7248;DHT22;3665;51.034;13.642;2023-09-07T23:46:00;14.70;1.00
7248;DHT22;3665;51.034;13.642;2023-09-07T23:50:46;15.00;1.00
7248;DHT22;3665;51.034;13.642;2023-09-07T23:55:36;15.20;1.00
